sensor_id;sensor_type;location;lat;lon;timestamp;temperature;humidity
70244;DHT22;57634;51.136;17.024;2023-08-30T00:02:40;17.10;86.30
70244;DHT22;57634;51.136;17.024;2023-08-30T00:05:42;17.00;86.20
70244;DHT22;57634;51.136;17.024;2023-08-30T00:08:43;17.00;86.20
70244;DHT22;57634;51.136;17.024;2023-08-30T00:11:45;17.10;86.20
70244;DHT22;57634;51.136;17.024;2023-08-30T00:14:47;17.10;86.20
70244;DHT22;57634;51.136;17.024;2023-08-30T00:18:16;17.10;86.10
70244;DHT22;57634;51.136;17.024;2023-08-30T00:21:19;17.10;86.00
70244;DHT22;57634;51.136;17.024;2023-08-30T00:24:26;17.10;86.10
70244;DHT22;57634;51.136;17.024;2023-08-30T00:27:28;17.00;86.30
70244;DHT22;57634;51.136;17.024;2023-08-30T00:30:30;17.00;86.30
70244;DHT22;57634;51.136;17.024;2023-08-30T00:33:31;17.10;86.10
70244;DHT22;57634;51.136;17.024;2023-08-30T00:36:33;17.00;86.20
70244;DHT22;57634;51.136;17.024;2023-08-30T00:39:37;17.00;86.20
70244;DHT22;57634;51.136;17.024;2023-08-30T00:42:40;17.00;86.50
70244;DHT22;57634;51.136;17.024;2023-08-30T00:45:42;16.90;86.40
70244;DHT22;57634;51.136;17.024;2023-08-30T00:48:44;17.00;86.30
70244;DHT22;57634;51.136;17.024;2023-08-30T00:52:12;17.00;86.30
70244;DHT22;57634;51.136;17.024;2023-08-30T00:55:13;16.90;86.30
70244;DHT22;57634;51.136;17.024;2023-08-30T00:58:16;16.90;86.60
70244;DHT22;57634;51.136;17.024;2023-08-30T01:01:18;16.90;86.70
70244;DHT22;57634;51.136;17.024;2023-08-30T01:04:20;16.80;86.80
70244;DHT22;57634;51.136;17.024;2023-08-30T01:07:23;16.80;86.90
70244;DHT22;57634;51.136;17.024;2023-08-30T01:10:38;16.90;86.90
70244;DHT22;57634;51.136;17.024;2023-08-30T01:13:56;16.80;86.80
70244;DHT22;57634;51.136;17.024;2023-08-30T01:17:23;16.80;86.80
70244;DHT22;57634;51.136;17.024;2023-08-30T01:20:26;16.70;87.10
70244;DHT22;57634;51.136;17.024;2023-08-30T01:23:41;16.70;87.10
70244;DHT22;57634;51.136;17.024;2023-08-30T01:29:58;16.70;87.10
70244;DHT22;57634;51.136;17.024;2023-08-30T01:33:01;16.80;87.10
70244;DHT22;57634;51.136;17.024;2023-08-30T01:36:04;16.80;87.00
70244;DHT22;57634;51.136;17.024;2023-08-30T01:39:35;16.80;86.70
70244;DHT22;57634;51.136;17.024;2023-08-30T01:42:38;16.80;86.60
70244;DHT22;57634;51.136;17.024;2023-08-30T01:45:42;16.70;86.50
70244;DHT22;57634;51.136;17.024;2023-08-30T01:48:46;16.70;86.70
70244;DHT22;57634;51.136;17.024;2023-08-30T01:51:49;16.60;86.90
70244;DHT22;57634;51.136;17.024;2023-08-30T01:54:51;16.70;86.80
70244;DHT22;57634;51.136;17.024;2023-08-30T01:57:54;16.70;86.80
70244;DHT22;57634;51.136;17.024;2023-08-30T02:00:56;16.70;86.70
70244;DHT22;57634;51.136;17.024;2023-08-30T02:03:57;16.80;86.60
70244;DHT22;57634;51.136;17.024;2023-08-30T02:07:10;16.80;86.40
70244;DHT22;57634;51.136;17.024;2023-08-30T02:10:51;16.80;86.40
70244;DHT22;57634;51.136;17.024;2023-08-30T02:13:57;16.70;86.50
70244;DHT22;57634;51.136;17.024;2023-08-30T02:16:59;16.70;86.70
70244;DHT22;57634;51.136;17.024;2023-08-30T02:20:01;16.70;86.80
70244;DHT22;57634;51.136;17.024;2023-08-30T02:23:12;16.70;86.70
70244;DHT22;57634;51.136;17.024;2023-08-30T02:26:13;16.80;86.80
70244;DHT22;57634;51.136;17.024;2023-08-30T02:29:15;16.80;86.70
70244;DHT22;57634;51.136;17.024;2023-08-30T02:32:16;16.80;86.60
70244;DHT22;57634;51.136;17.024;2023-08-30T02:35:49;16.80;86.60
70244;DHT22;57634;51.136;17.024;2023-08-30T02:45:24;16.70;86.20
70244;DHT22;57634;51.136;17.024;2023-08-30T02:48:25;16.70;86.30
70244;DHT22;57634;51.136;17.024;2023-08-30T02:51:26;16.70;86.40
70244;DHT22;57634;51.136;17.024;2023-08-30T02:54:29;16.70;86.40
70244;DHT22;57634;51.136;17.024;2023-08-30T02:57:57;16.70;86.50
70244;DHT22;57634;51.136;17.024;2023-08-30T03:00:58;16.70;86.60
70244;DHT22;57634;51.136;17.024;2023-08-30T03:03:59;16.70;86.50
70244;DHT22;57634;51.136;17.024;2023-08-30T03:07:00;16.70;86.50
70244;DHT22;57634;51.136;17.024;2023-08-30T03:10:02;16.70;86.20
70244;DHT22;57634;51.136;17.024;2023-08-30T03:13:04;16.70;86.30
70244;DHT22;57634;51.136;17.024;2023-08-30T03:16:11;16.70;86.20
70244;DHT22;57634;51.136;17.024;2023-08-30T03:19:13;16.70;86.00
70244;DHT22;57634;51.136;17.024;2023-08-30T03:22:14;16.70;86.00
70244;DHT22;57634;51.136;17.024;2023-08-30T03:25:15;16.60;85.90
70244;DHT22;57634;51.136;17.024;2023-08-30T03:28:17;16.50;86.00
70244;DHT22;57634;51.136;17.024;2023-08-30T03:31:20;16.50;86.30
70244;DHT22;57634;51.136;17.024;2023-08-30T03:34:50;16.50;86.50
70244;DHT22;57634;51.136;17.024;2023-08-30T03:37:51;16.40;86.70
70244;DHT22;57634;51.136;17.024;2023-08-30T03:40:53;16.50;86.80
70244;DHT22;57634;51.136;17.024;2023-08-30T03:43:56;16.50;86.80
70244;DHT22;57634;51.136;17.024;2023-08-30T03:50:03;16.60;86.70
70244;DHT22;57634;51.136;17.024;2023-08-30T03:59:57;16.60;86.60
70244;DHT22;57634;51.136;17.024;2023-08-30T04:12:14;16.60;86.20
70244;DHT22;57634;51.136;17.024;2023-08-30T06:03:03;17.10;85.10
70244;DHT22;57634;51.136;17.024;2023-08-30T06:31:12;17.40;83.30
70244;DHT22;57634;51.136;17.024;2023-08-30T08:25:14;18.20;76.40
70244;DHT22;57634;51.136;17.024;2023-08-30T08:28:17;18.20;76.80
70244;DHT22;57634;51.136;17.024;2023-08-30T08:31:18;18.30;77.00
70244;DHT22;57634;51.136;17.024;2023-08-30T08:58:04;18.50;76.30
70244;DHT22;57634;51.136;17.024;2023-08-30T09:01:06;18.40;76.20
70244;DHT22;57634;51.136;17.024;2023-08-30T09:24:55;18.40;75.60
70244;DHT22;57634;51.136;17.024;2023-08-30T09:27:57;18.40;75.60
70244;DHT22;57634;51.136;17.024;2023-08-30T09:31:01;18.40;75.70
70244;DHT22;57634;51.136;17.024;2023-08-30T09:41:03;18.40;76.00
70244;DHT22;57634;51.136;17.024;2023-08-30T09:44:12;18.30;76.10
70244;DHT22;57634;51.136;17.024;2023-08-30T09:47:18;18.20;76.40
70244;DHT22;57634;51.136;17.024;2023-08-30T09:50:20;18.20;76.70
70244;DHT22;57634;51.136;17.024;2023-08-30T09:57:04;18.30;76.90
70244;DHT22;57634;51.136;17.024;2023-08-30T10:00:07;18.20;77.00
70244;DHT22;57634;51.136;17.024;2023-08-30T10:03:10;18.30;77.40
70244;DHT22;57634;51.136;17.024;2023-08-30T10:06:12;18.30;77.20
70244;DHT22;57634;51.136;17.024;2023-08-30T10:09:16;18.40;77.00
70244;DHT22;57634;51.136;17.024;2023-08-30T10:12:20;18.50;76.70
70244;DHT22;57634;51.136;17.024;2023-08-30T10:22:18;18.60;76.00
70244;DHT22;57634;51.136;17.024;2023-08-30T10:25:33;18.60;76.00
70244;DHT22;57634;51.136;17.024;2023-08-30T10:28:36;18.60;76.00
70244;DHT22;57634;51.136;17.024;2023-08-30T10:31:38;18.70;75.80
70244;DHT22;57634;51.136;17.024;2023-08-30T10:48:02;19.10;74.70
70244;DHT22;57634;51.136;17.024;2023-08-30T10:57:20;19.30;73.60
70244;DHT22;57634;51.136;17.024;2023-08-30T11:03:59;19.50;73.10
70244;DHT22;57634;51.136;17.024;2023-08-30T11:07:01;19.60;72.60
70244;DHT22;57634;51.136;17.024;2023-08-30T11:17:02;19.60;72.80
70244;DHT22;57634;51.136;17.024;2023-08-30T11:32:24;20.80;70.30
70244;DHT22;57634;51.136;17.024;2023-08-30T11:35:26;21.00;69.60
70244;DHT22;57634;51.136;17.024;2023-08-30T11:38:28;21.20;68.50
70244;DHT22;57634;51.136;17.024;2023-08-30T11:41:31;21.30;67.90
70244;DHT22;57634;51.136;17.024;2023-08-30T11:44:32;21.40;66.80
70244;DHT22;57634;51.136;17.024;2023-08-30T11:48:01;21.50;66.30
70244;DHT22;57634;51.136;17.024;2023-08-30T11:51:03;21.50;65.70
70244;DHT22;57634;51.136;17.024;2023-08-30T11:54:05;21.70;65.60
70244;DHT22;57634;51.136;17.024;2023-08-30T11:57:08;21.80;64.70
70244;DHT22;57634;51.136;17.024;2023-08-30T12:06:22;22.10;63.00
70244;DHT22;57634;51.136;17.024;2023-08-30T12:09:32;22.10;62.60
70244;DHT22;57634;51.136;17.024;2023-08-30T12:12:33;21.90;62.30
70244;DHT22;57634;51.136;17.024;2023-08-30T12:16:03;21.50;62.80
70244;DHT22;57634;51.136;17.024;2023-08-30T12:19:12;21.10;63.90
70244;DHT22;57634;51.136;17.024;2023-08-30T12:22:18;20.90;64.50
70244;DHT22;57634;51.136;17.024;2023-08-30T12:25:21;20.70;65.20
70244;DHT22;57634;51.136;17.024;2023-08-30T12:28:27;20.70;65.90
70244;DHT22;57634;51.136;17.024;2023-08-30T12:41:37;21.20;64.90
70244;DHT22;57634;51.136;17.024;2023-08-30T12:44:42;21.30;64.20
70244;DHT22;57634;51.136;17.024;2023-08-30T12:47:44;21.30;63.80
70244;DHT22;57634;51.136;17.024;2023-08-30T12:50:47;21.20;63.70
70244;DHT22;57634;51.136;17.024;2023-08-30T12:53:49;21.00;64.00
70244;DHT22;57634;51.136;17.024;2023-08-30T12:56:50;20.70;64.50
70244;DHT22;57634;51.136;17.024;2023-08-30T12:59:52;20.40;65.30
70244;DHT22;57634;51.136;17.024;2023-08-30T13:20:03;20.50;67.50
70244;DHT22;57634;51.136;17.024;2023-08-30T13:23:06;20.70;66.70
70244;DHT22;57634;51.136;17.024;2023-08-30T13:26:08;20.80;66.10
70244;DHT22;57634;51.136;17.024;2023-08-30T13:29:10;20.70;65.50
70244;DHT22;57634;51.136;17.024;2023-08-30T13:35:17;20.50;66.10
70244;DHT22;57634;51.136;17.024;2023-08-30T13:55:08;21.20;64.20
70244;DHT22;57634;51.136;17.024;2023-08-30T14:01:42;20.90;64.10
70244;DHT22;57634;51.136;17.024;2023-08-30T14:04:43;20.80;64.60
70244;DHT22;57634;51.136;17.024;2023-08-30T14:07:44;20.70;65.20
70244;DHT22;57634;51.136;17.024;2023-08-30T14:13:51;20.70;65.10
70244;DHT22;57634;51.136;17.024;2023-08-30T14:16:53;20.70;65.20
70244;DHT22;57634;51.136;17.024;2023-08-30T14:33:24;20.70;65.00
70244;DHT22;57634;51.136;17.024;2023-08-30T14:42:35;21.00;64.70
70244;DHT22;57634;51.136;17.024;2023-08-30T14:46:09;21.00;64.10
70244;DHT22;57634;51.136;17.024;2023-08-30T14:49:10;21.00;63.70
70244;DHT22;57634;51.136;17.024;2023-08-30T14:52:13;20.90;63.70
70244;DHT22;57634;51.136;17.024;2023-08-30T14:58:31;20.60;64.20
70244;DHT22;57634;51.136;17.024;2023-08-30T15:01:33;20.40;64.40
70244;DHT22;57634;51.136;17.024;2023-08-30T15:04:34;20.20;65.00
70244;DHT22;57634;51.136;17.024;2023-08-30T15:07:35;20.00;65.60
70244;DHT22;57634;51.136;17.024;2023-08-30T15:10:37;19.80;66.10
70244;DHT22;57634;51.136;17.024;2023-08-30T15:14:06;19.70;66.60
70244;DHT22;57634;51.136;17.024;2023-08-30T15:17:07;19.60;67.20
70244;DHT22;57634;51.136;17.024;2023-08-30T15:20:09;19.50;67.60
70244;DHT22;57634;51.136;17.024;2023-08-30T15:46:57;19.10;70.10
70244;DHT22;57634;51.136;17.024;2023-08-30T15:49:59;19.00;70.60
70244;DHT22;57634;51.136;17.024;2023-08-30T15:53:00;19.10;70.90
70244;DHT22;57634;51.136;17.024;2023-08-30T15:56:02;19.10;71.10
70244;DHT22;57634;51.136;17.024;2023-08-30T15:59:04;19.10;71.10
70244;DHT22;57634;51.136;17.024;2023-08-30T16:02:05;19.20;71.10
70244;DHT22;57634;51.136;17.024;2023-08-30T16:05:07;19.20;70.90
70244;DHT22;57634;51.136;17.024;2023-08-30T16:11:14;19.40;70.80
70244;DHT22;57634;51.136;17.024;2023-08-30T16:34:47;19.20;71.00
70244;DHT22;57634;51.136;17.024;2023-08-30T16:47:06;19.20;71.20
70244;DHT22;57634;51.136;17.024;2023-08-30T16:50:08;19.20;71.40
70244;DHT22;57634;51.136;17.024;2023-08-30T16:53:38;19.10;71.50
70244;DHT22;57634;51.136;17.024;2023-08-30T16:56:39;19.10;71.70
70244;DHT22;57634;51.136;17.024;2023-08-30T16:59:42;19.10;71.90
70244;DHT22;57634;51.136;17.024;2023-08-30T17:06:00;19.00;72.30
70244;DHT22;57634;51.136;17.024;2023-08-30T17:15:14;18.90;72.60
70244;DHT22;57634;51.136;17.024;2023-08-30T17:18:43;18.80;72.70
70244;DHT22;57634;51.136;17.024;2023-08-30T17:21:44;18.80;73.10
70244;DHT22;57634;51.136;17.024;2023-08-30T17:37:06;18.40;74.50
70244;DHT22;57634;51.136;17.024;2023-08-30T17:40:11;18.30;74.70
70244;DHT22;57634;51.136;17.024;2023-08-30T17:43:52;18.20;75.00
70244;DHT22;57634;51.136;17.024;2023-08-30T17:46:54;18.10;75.20
70244;DHT22;57634;51.136;17.024;2023-08-30T17:49:55;18.10;75.50
70244;DHT22;57634;51.136;17.024;2023-08-30T17:52:57;18.00;75.60
70244;DHT22;57634;51.136;17.024;2023-08-30T17:55:59;18.00;75.90
70244;DHT22;57634;51.136;17.024;2023-08-30T17:59:01;17.90;76.10
70244;DHT22;57634;51.136;17.024;2023-08-30T18:02:03;17.80;76.30
70244;DHT22;57634;51.136;17.024;2023-08-30T18:05:06;17.70;76.50
70244;DHT22;57634;51.136;17.024;2023-08-30T18:08:08;17.70;76.80
70244;DHT22;57634;51.136;17.024;2023-08-30T18:11:16;17.60;77.00
70244;DHT22;57634;51.136;17.024;2023-08-30T18:14:18;17.60;77.30
70244;DHT22;57634;51.136;17.024;2023-08-30T18:17:46;17.60;77.40
70244;DHT22;57634;51.136;17.024;2023-08-30T18:20:47;17.60;77.60
70244;DHT22;57634;51.136;17.024;2023-08-30T18:27:02;17.60;78.00
70244;DHT22;57634;51.136;17.024;2023-08-30T18:30:04;17.60;78.10
70244;DHT22;57634;51.136;17.024;2023-08-30T18:33:08;17.60;78.20
70244;DHT22;57634;51.136;17.024;2023-08-30T18:36:10;17.60;78.30
70244;DHT22;57634;51.136;17.024;2023-08-30T18:39:11;17.60;78.30
70244;DHT22;57634;51.136;17.024;2023-08-30T18:42:17;17.60;78.30
70244;DHT22;57634;51.136;17.024;2023-08-30T18:45:19;17.60;78.30
70244;DHT22;57634;51.136;17.024;2023-08-30T18:48:47;17.70;78.40
70244;DHT22;57634;51.136;17.024;2023-08-30T18:51:49;17.70;78.50
70244;DHT22;57634;51.136;17.024;2023-08-30T18:54:50;17.70;78.60
70244;DHT22;57634;51.136;17.024;2023-08-30T18:57:53;17.70;78.60
70244;DHT22;57634;51.136;17.024;2023-08-30T19:00:54;17.70;78.70
70244;DHT22;57634;51.136;17.024;2023-08-30T19:03:56;17.70;78.80
70244;DHT22;57634;51.136;17.024;2023-08-30T19:06:58;17.70;78.80
70244;DHT22;57634;51.136;17.024;2023-08-30T19:10:00;17.70;78.80
70244;DHT22;57634;51.136;17.024;2023-08-30T19:13:01;17.70;78.90
70244;DHT22;57634;51.136;17.024;2023-08-30T19:16:03;17.70;78.90
70244;DHT22;57634;51.136;17.024;2023-08-30T19:19:05;17.70;78.90
70244;DHT22;57634;51.136;17.024;2023-08-30T19:22:09;17.80;79.00
70244;DHT22;57634;51.136;17.024;2023-08-30T19:25:40;17.70;79.00
70244;DHT22;57634;51.136;17.024;2023-08-30T19:28:41;17.70;79.20
70244;DHT22;57634;51.136;17.024;2023-08-30T19:31:43;17.70;79.30
70244;DHT22;57634;51.136;17.024;2023-08-30T19:34:45;17.70;79.40
70244;DHT22;57634;51.136;17.024;2023-08-30T19:37:52;17.70;79.40
70244;DHT22;57634;51.136;17.024;2023-08-30T19:40:55;17.70;79.30
70244;DHT22;57634;51.136;17.024;2023-08-30T19:43:56;17.70;79.20
70244;DHT22;57634;51.136;17.024;2023-08-30T19:46:58;17.70;79.30
70244;DHT22;57634;51.136;17.024;2023-08-30T19:50:00;17.70;79.30
70244;DHT22;57634;51.136;17.024;2023-08-30T19:53:02;17.70;79.30
70244;DHT22;57634;51.136;17.024;2023-08-30T19:56:07;17.70;79.30
70244;DHT22;57634;51.136;17.024;2023-08-30T19:59:36;17.60;79.40
70244;DHT22;57634;51.136;17.024;2023-08-30T20:02:38;17.60;79.60
70244;DHT22;57634;51.136;17.024;2023-08-30T20:05:46;17.60;79.70
70244;DHT22;57634;51.136;17.024;2023-08-30T20:08:49;17.50;79.80
70244;DHT22;57634;51.136;17.024;2023-08-30T20:11:51;17.50;79.80
70244;DHT22;57634;51.136;17.024;2023-08-30T20:14:52;17.50;79.80
70244;DHT22;57634;51.136;17.024;2023-08-30T20:17:54;17.50;79.80
70244;DHT22;57634;51.136;17.024;2023-08-30T20:20:56;17.50;79.80
70244;DHT22;57634;51.136;17.024;2023-08-30T20:23:59;17.50;79.70
70244;DHT22;57634;51.136;17.024;2023-08-30T20:27:00;17.60;79.80
70244;DHT22;57634;51.136;17.024;2023-08-30T20:30:02;17.50;79.70
70244;DHT22;57634;51.136;17.024;2023-08-30T20:33:04;17.50;79.70
70244;DHT22;57634;51.136;17.024;2023-08-30T20:36:32;17.50;79.80
70244;DHT22;57634;51.136;17.024;2023-08-30T20:39:36;17.50;79.70
70244;DHT22;57634;51.136;17.024;2023-08-30T20:42:38;17.50;79.80
70244;DHT22;57634;51.136;17.024;2023-08-30T20:45:39;17.50;79.80
70244;DHT22;57634;51.136;17.024;2023-08-30T20:48:40;17.50;79.70
70244;DHT22;57634;51.136;17.024;2023-08-30T20:51:41;17.40;79.70
70244;DHT22;57634;51.136;17.024;2023-08-30T20:54:43;17.40;79.70
70244;DHT22;57634;51.136;17.024;2023-08-30T20:57:44;17.40;79.70
70244;DHT22;57634;51.136;17.024;2023-08-30T21:00:54;17.40;79.70
70244;DHT22;57634;51.136;17.024;2023-08-30T21:03:56;17.30;79.70
70244;DHT22;57634;51.136;17.024;2023-08-30T21:07:00;17.30;79.80
70244;DHT22;57634;51.136;17.024;2023-08-30T21:10:29;17.30;79.80
70244;DHT22;57634;51.136;17.024;2023-08-30T21:13:30;17.30;79.90
70244;DHT22;57634;51.136;17.024;2023-08-30T21:16:32;17.20;79.80
70244;DHT22;57634;51.136;17.024;2023-08-30T21:19:35;17.30;79.90
70244;DHT22;57634;51.136;17.024;2023-08-30T21:22:37;17.20;79.90
70244;DHT22;57634;51.136;17.024;2023-08-30T21:25:40;17.20;79.90
70244;DHT22;57634;51.136;17.024;2023-08-30T21:28:42;17.30;79.90
70244;DHT22;57634;51.136;17.024;2023-08-30T21:31:44;17.30;79.80
70244;DHT22;57634;51.136;17.024;2023-08-30T21:34:45;17.30;79.80
70244;DHT22;57634;51.136;17.024;2023-08-30T21:37:47;17.30;79.70
70244;DHT22;57634;51.136;17.024;2023-08-30T21:40:48;17.30;79.60
70244;DHT22;57634;51.136;17.024;2023-08-30T21:43:50;17.30;79.60
70244;DHT22;57634;51.136;17.024;2023-08-30T21:46:51;17.40;79.50
70244;DHT22;57634;51.136;17.024;2023-08-30T21:50:20;17.30;79.40
70244;DHT22;57634;51.136;17.024;2023-08-30T21:53:21;17.30;79.40
70244;DHT22;57634;51.136;17.024;2023-08-30T21:56:23;17.30;79.40
70244;DHT22;57634;51.136;17.024;2023-08-30T21:59:27;17.30;79.40
70244;DHT22;57634;51.136;17.024;2023-08-30T22:02:28;17.20;79.40
70244;DHT22;57634;51.136;17.024;2023-08-30T22:05:30;17.20;79.40
70244;DHT22;57634;51.136;17.024;2023-08-30T22:08:31;17.20;79.20
70244;DHT22;57634;51.136;17.024;2023-08-30T22:11:33;17.20;79.20
70244;DHT22;57634;51.136;17.024;2023-08-30T22:14:37;17.20;79.10
70244;DHT22;57634;51.136;17.024;2023-08-30T22:17:46;17.20;79.10
70244;DHT22;57634;51.136;17.024;2023-08-30T22:20:48;17.10;79.00
70244;DHT22;57634;51.136;17.024;2023-08-30T22:24:18;17.20;79.20
70244;DHT22;57634;51.136;17.024;2023-08-30T22:27:19;17.10;79.20
70244;DHT22;57634;51.136;17.024;2023-08-30T22:30:21;17.10;79.20
70244;DHT22;57634;51.136;17.024;2023-08-30T22:33:22;17.10;79.10
70244;DHT22;57634;51.136;17.024;2023-08-30T22:36:24;17.10;79.20
70244;DHT22;57634;51.136;17.024;2023-08-30T22:39:26;17.10;79.30
70244;DHT22;57634;51.136;17.024;2023-08-30T22:42:28;17.00;79.20
70244;DHT22;57634;51.136;17.024;2023-08-30T22:45:30;17.10;79.30
70244;DHT22;57634;51.136;17.024;2023-08-30T22:48:33;17.10;79.30
70244;DHT22;57634;51.136;17.024;2023-08-30T22:51:36;17.10;79.20
70244;DHT22;57634;51.136;17.024;2023-08-30T22:54:37;17.10;79.20
70244;DHT22;57634;51.136;17.024;2023-08-30T22:57:40;17.10;79.10
70244;DHT22;57634;51.136;17.024;2023-08-30T23:00:42;17.10;79.00
70244;DHT22;57634;51.136;17.024;2023-08-30T23:04:09;17.10;79.00
70244;DHT22;57634;51.136;17.024;2023-08-30T23:07:10;17.10;79.00
70244;DHT22;57634;51.136;17.024;2023-08-30T23:10:13;17.10;78.90
70244;DHT22;57634;51.136;17.024;2023-08-30T23:13:14;17.00;78.70
70244;DHT22;57634;51.136;17.024;2023-08-30T23:16:16;17.10;78.70
70244;DHT22;57634;51.136;17.024;2023-08-30T23:19:17;17.00;78.50
70244;DHT22;57634;51.136;17.024;2023-08-30T23:22:18;17.00;78.50
70244;DHT22;57634;51.136;17.024;2023-08-30T23:25:20;17.00;78.50
70244;DHT22;57634;51.136;17.024;2023-08-30T23:28:25;17.00;78.50
70244;DHT22;57634;51.136;17.024;2023-08-30T23:31:26;17.00;78.40
70244;DHT22;57634;51.136;17.024;2023-08-30T23:34:28;17.00;78.40
70244;DHT22;57634;51.136;17.024;2023-08-30T23:37:31;17.00;78.40
70244;DHT22;57634;51.136;17.024;2023-08-30T23:40:32;17.00;78.40
70244;DHT22;57634;51.136;17.024;2023-08-30T23:43:59;17.00;78.30
70244;DHT22;57634;51.136;17.024;2023-08-30T23:47:01;17.00;78.30
70244;DHT22;57634;51.136;17.024;2023-08-30T23:50:02;17.00;78.20
70244;DHT22;57634;51.136;17.024;2023-08-30T23:53:04;17.00;78.20
70244;DHT22;57634;51.136;17.024;2023-08-30T23:56:07;17.00;78.10
70244;DHT22;57634;51.136;17.024;2023-08-30T23:59:09;17.00;78.10
